Time;durP1;ratioP1;P1;durP2;ratioP2;P2;SDS_P1;SDS_P2;PMS_P1;PMS_P2;Temp;Humidity;BMP_temperature;BMP_pressure;BME280_temperature;BME280_humidity;BME280_pressure;Samples;Min_cycle;Max_cycle;Signal;HPM_P1;HPM_P2
2024/04/04 00:00:32;;;;;;;12.00;2.65;;;;;;;;;;4901920;29;20154;-85
2024/04/04 00:03:00;;;;;;;12.27;2.60;;;;;;;;;;4901138;29;20507;-83
2024/04/04 00:05:29;;;;;;;19.95;3.70;;;;;;;;;;4885856;29;20056;-83
2024/04/04 00:07:57;;;;;;;10.95;2.88;;;;;;;;;;4887375;29;20051;-83
2024/04/04 00:10:26;;;;;;;23.00;8.48;;;;;;;;;;4900772;29;20169;-83
2024/04/04 00:12:54;;;;;;;18.98;7.75;;;;;;;;;;4901127;29;20408;-83
2024/04/04 00:15:22;;;;;;;17.67;3.72;;;;;;;;;;4878561;29;20048;-84
2024/04/04 00:17:51;;;;;;;18.20;3.35;;;;;;;;;;4865406;29;20040;-83
2024/04/04 00:20:20;;;;;;;14.73;3.70;;;;;;;;;;4881442;29;20040;-88
2024/04/04 00:22:48;;;;;;;11.38;3.15;;;;;;;;;;4872279;29;20052;-85
2024/04/04 00:25:16;;;;;;;20.65;4.80;;;;;;;;;;4865798;29;20550;-87
2024/04/04 00:27:44;;;;;;;13.30;2.90;;;;;;;;;;4879057;29;20052;-83
2024/04/04 00:30:12;;;;;;;21.25;3.53;;;;;;;;;;4862214;29;20055;-85
2024/04/04 00:32:41;;;;;;;13.20;4.60;;;;;;;;;;4875703;29;20059;-87
2024/04/04 00:35:09;;;;;;;23.85;9.40;;;;;;;;;;4879843;29;20060;-82
2024/04/04 00:37:37;;;;;;;24.77;9.23;;;;;;;;;;4883101;29;20060;-82
2024/04/04 00:40:06;;;;;;;24.15;11.63;;;;;;;;;;4891409;29;20063;-84
2024/04/04 00:42:34;;;;;;;39.28;24.48;;;;;;;;;;4879544;29;20055;-86
2024/04/04 00:45:02;;;;;;;23.05;7.90;;;;;;;;;;4864833;29;20420;-83
2024/04/04 00:47:30;;;;;;;26.90;8.55;;;;;;;;;;4879063;29;20511;-85
2024/04/04 00:49:58;;;;;;;12.63;3.13;;;;;;;;;;4879829;29;20052;-83
2024/04/04 00:52:27;;;;;;;12.90;3.58;;;;;;;;;;4878897;29;20504;-85
2024/04/04 00:54:56;;;;;;;13.38;3.45;;;;;;;;;;4881169;29;20045;-83
2024/04/04 00:57:25;;;;;;;10.55;5.28;;;;;;;;;;4864925;29;20083;-83
2024/04/04 00:59:54;;;;;;;17.52;3.50;;;;;;;;;;4880366;29;20496;-84
2024/04/04 01:02:23;;;;;;;12.68;5.65;;;;;;;;;;4863989;29;20526;-84
2024/04/04 01:04:51;;;;;;;15.25;5.30;;;;;;;;;;4879787;29;20056;-84
2024/04/04 01:07:22;;;;;;;12.65;3.97;;;;;;;;;;4864245;29;20060;-84
2024/04/04 01:09:51;;;;;;;9.38;2.92;;;;;;;;;;4864425;29;20500;-84
2024/04/04 01:12:19;;;;;;;7.38;2.60;;;;;;;;;;4875634;29;20057;-83
2024/04/04 01:14:47;;;;;;;28.55;12.07;;;;;;;;;;4860875;29;20048;-84
2024/04/04 01:17:15;;;;;;;13.40;3.72;;;;;;;;;;4861027;29;20120;-83
2024/04/04 01:19:43;;;;;;;14.55;7.72;;;;;;;;;;4860347;29;20057;-83
2024/04/04 01:22:12;;;;;;;15.60;3.20;;;;;;;;;;4890766;29;20408;-86
2024/04/04 01:24:40;;;;;;;17.20;3.80;;;;;;;;;;4865846;29;20051;-85
2024/04/04 01:27:08;;;;;;;14.98;3.05;;;;;;;;;;4883451;29;20056;-84
2024/04/04 01:29:36;;;;;;;13.20;3.38;;;;;;;;;;4883201;29;20059;-84
2024/04/04 01:32:04;;;;;;;12.85;3.60;;;;;;;;;;4871975;29;20052;-83
2024/04/04 01:34:33;;;;;;;8.45;2.72;;;;;;;;;;4884517;29;20048;-84
2024/04/04 01:37:02;;;;;;;9.55;3.45;;;;;;;;;;4868552;29;20053;-83
2024/04/04 01:39:30;;;;;;;13.25;2.92;;;;;;;;;;4866545;29;20068;-85
2024/04/04 01:41:58;;;;;;;8.57;3.00;;;;;;;;;;4883919;29;20060;-87
2024/04/04 01:44:26;;;;;;;14.40;2.70;;;;;;;;;;4884664;29;20415;-82
2024/04/04 01:46:54;;;;;;;11.73;2.45;;;;;;;;;;4869936;29;20523;-83
2024/04/04 01:49:22;;;;;;;11.85;2.55;;;;;;;;;;4851165;29;20060;-84
2024/04/04 01:52:16;;;;;;;11.15;2.92;;;;;;;;;;4865702;29;20523;-82
2024/04/04 01:54:44;;;;;;;10.18;2.53;;;;;;;;;;4866002;29;20044;-83
2024/04/04 01:57:13;;;;;;;5.90;2.85;;;;;;;;;;4866286;29;20511;-84
2024/04/04 01:59:41;;;;;;;10.32;2.60;;;;;;;;;;4865203;29;20606;-83
2024/04/04 02:02:10;;;;;;;8.50;2.70;;;;;;;;;;4866095;29;20049;-83
2024/04/04 02:04:38;;;;;;;12.65;3.00;;;;;;;;;;4865033;29;20053;-84
2024/04/04 02:07:06;;;;;;;8.85;3.30;;;;;;;;;;4865904;29;20052;-83
2024/04/04 02:09:36;;;;;;;14.38;3.88;;;;;;;;;;4849726;29;20385;-84
2024/04/04 02:12:04;;;;;;;14.60;3.10;;;;;;;;;;4865310;29;20068;-86
2024/04/04 02:14:36;;;;;;;8.35;3.05;;;;;;;;;;4865689;29;20060;-83
2024/04/04 02:17:05;;;;;;;9.55;2.63;;;;;;;;;;4864365;29;20366;-85
2024/04/04 02:19:38;;;;;;;10.40;3.30;;;;;;;;;;4865506;29;20511;-83
2024/04/04 02:22:07;;;;;;;15.18;3.17;;;;;;;;;;4870704;29;20044;-83
2024/04/04 02:24:35;;;;;;;6.85;3.03;;;;;;;;;;4865387;29;20049;-84
2024/04/04 02:27:04;;;;;;;9.55;2.75;;;;;;;;;;4880976;29;20057;-86
2024/04/04 02:29:32;;;;;;;6.88;2.30;;;;;;;;;;4865218;29;20048;-83
2024/04/04 02:32:00;;;;;;;11.95;2.72;;;;;;;;;;4879851;29;20049;-83
2024/04/04 02:34:28;;;;;;;8.00;3.45;;;;;;;;;;4865113;29;20105;-84
2024/04/04 02:36:56;;;;;;;10.10;4.00;;;;;;;;;;4880222;29;20060;-83
2024/04/04 02:39:25;;;;;;;15.40;2.65;;;;;;;;;;4864209;29;20057;-83
2024/04/04 02:41:53;;;;;;;13.60;2.97;;;;;;;;;;4850044;29;20511;-85
2024/04/04 02:44:21;;;;;;;11.38;2.75;;;;;;;;;;4864792;29;20534;-83
2024/04/04 02:46:49;;;;;;;8.65;2.25;;;;;;;;;;4849683;29;20060;-85
2024/04/04 02:49:19;;;;;;;7.82;2.38;;;;;;;;;;4865230;29;20057;-85
2024/04/04 02:51:49;;;;;;;12.02;3.03;;;;;;;;;;4865591;29;20060;-84
2024/04/04 02:54:17;;;;;;;10.35;3.03;;;;;;;;;;4864973;29;20056;-84
2024/04/04 02:56:48;;;;;;;8.48;2.63;;;;;;;;;;4864405;29;20064;-84
2024/04/04 02:59:16;;;;;;;17.13;4.13;;;;;;;;;;4864541;29;20053;-84
2024/04/04 03:01:45;;;;;;;14.57;2.85;;;;;;;;;;4864871;29;20049;-85
2024/04/04 03:04:14;;;;;;;7.82;2.47;;;;;;;;;;4864440;29;20068;-82
2024/04/04 03:06:42;;;;;;;10.75;2.60;;;;;;;;;;4864530;29;20056;-85
2024/04/04 03:09:13;;;;;;;9.82;2.67;;;;;;;;;;4864300;29;20053;-87
2024/04/04 03:11:41;;;;;;;7.07;2.42;;;;;;;;;;4873102;29;20040;-89
2024/04/04 03:14:10;;;;;;;7.80;2.15;;;;;;;;;;4882457;29;20048;-87
2024/04/04 03:16:38;;;;;;;13.70;3.17;;;;;;;;;;4882288;29;20049;-86
2024/04/04 03:19:06;;;;;;;10.75;2.50;;;;;;;;;;4882270;29;20515;-85
2024/04/04 03:21:37;;;;;;;9.10;2.75;;;;;;;;;;4881956;29;20044;-85
2024/04/04 03:24:05;;;;;;;6.32;2.53;;;;;;;;;;4866758;29;20052;-85
2024/04/04 03:26:33;;;;;;;7.43;2.40;;;;;;;;;;4867245;29;20053;-83
2024/04/04 03:29:37;;;;;;;10.57;3.10;;;;;;;;;;4882930;29;20040;-84
2024/04/04 03:32:06;;;;;;;7.93;2.45;;;;;;;;;;4882649;29;20057;-90
2024/04/04 03:34:34;;;;;;;8.57;2.35;;;;;;;;;;4883000;29;20044;-85
2024/04/04 03:37:02;;;;;;;11.43;2.53;;;;;;;;;;4851888;29;20055;-89
2024/04/04 03:39:31;;;;;;;15.60;3.25;;;;;;;;;;4866894;29;20516;-84
2024/04/04 03:42:00;;;;;;;9.23;2.63;;;;;;;;;;4882865;29;20045;-84
2024/04/04 03:44:28;;;;;;;11.05;2.75;;;;;;;;;;4866948;29;20499;-84
2024/04/04 03:46:57;;;;;;;5.57;2.30;;;;;;;;;;4882809;29;20414;-84
2024/04/04 03:49:25;;;;;;;7.40;2.85;;;;;;;;;;4866886;29;20492;-84
2024/04/04 03:51:53;;;;;;;8.27;2.70;;;;;;;;;;4882182;29;20480;-84
2024/04/04 03:54:23;;;;;;;8.43;2.97;;;;;;;;;;4866669;29;20527;-86
2024/04/04 03:56:52;;;;;;;13.13;3.60;;;;;;;;;;4866199;29;20058;-85
2024/04/04 03:59:21;;;;;;;8.88;2.75;;;;;;;;;;4882107;29;20049;-86
2024/04/04 04:01:50;;;;;;;10.55;2.85;;;;;;;;;;4882239;29;20064;-88
2024/04/04 04:04:19;;;;;;;8.50;2.60;;;;;;;;;;4882578;29;20049;-85
2024/04/04 04:06:47;;;;;;;8.95;2.92;;;;;;;;;;4882024;29;20053;-85
2024/04/04 04:09:19;;;;;;;7.00;2.72;;;;;;;;;;4882304;29;20048;-85
2024/04/04 04:11:48;;;;;;;11.68;3.13;;;;;;;;;;4882348;29;20052;-85
2024/04/04 04:14:17;;;;;;;12.38;3.28;;;;;;;;;;4882443;29;20056;-85
2024/04/04 04:16:45;;;;;;;7.57;2.70;;;;;;;;;;4882019;29;20055;-84
2024/04/04 04:19:17;;;;;;;8.27;2.63;;;;;;;;;;4881516;29;20060;-83
2024/04/04 04:21:45;;;;;;;9.38;2.92;;;;;;;;;;4867010;29;20056;-85
2024/04/04 04:24:13;;;;;;;7.07;2.88;;;;;;;;;;4865641;29;20056;-85
2024/04/04 04:26:41;;;;;;;9.13;3.13;;;;;;;;;;4881160;29;20057;-84
2024/04/04 04:29:11;;;;;;;10.65;3.35;;;;;;;;;;4881576;29;20056;-84
2024/04/04 04:31:39;;;;;;;10.63;3.15;;;;;;;;;;4881793;29;20048;-87
2024/04/04 04:34:07;;;;;;;7.63;3.10;;;;;;;;;;4881842;29;20048;-84
2024/04/04 04:37:06;;;;;;;14.73;3.55;;;;;;;;;;4883713;29;20061;-85
2024/04/04 04:39:34;;;;;;;8.98;2.90;;;;;;;;;;4868228;29;20072;-85
2024/04/04 04:42:03;;;;;;;11.43;3.30;;;;;;;;;;4881862;29;20040;-84
2024/04/04 04:44:35;;;;;;;10.70;3.78;;;;;;;;;;4880982;29;20048;-87
2024/04/04 04:47:04;;;;;;;7.15;2.97;;;;;;;;;;4865736;29;20057;-87
2024/04/04 04:49:33;;;;;;;8.07;3.30;;;;;;;;;;4866730;29;20053;-86
2024/04/04 04:52:02;;;;;;;8.05;2.95;;;;;;;;;;4865874;29;20425;-85
2024/04/04 04:54:30;;;;;;;9.45;3.22;;;;;;;;;;4865635;29;20059;-84
2024/04/04 04:56:59;;;;;;;13.10;3.40;;;;;;;;;;4881659;29;20059;-84
2024/04/04 04:59:28;;;;;;;14.55;3.50;;;;;;;;;;4880879;29;20052;-83
2024/04/04 05:01:56;;;;;;;9.88;3.70;;;;;;;;;;4866400;29;20049;-85
2024/04/04 05:04:28;;;;;;;6.30;2.95;;;;;;;;;;4881858;29;20041;-85
2024/04/04 05:06:58;;;;;;;11.65;2.92;;;;;;;;;;4866492;29;20040;-85
2024/04/04 05:09:26;;;;;;;12.98;3.42;;;;;;;;;;4850975;29;20056;-84
2024/04/04 05:11:54;;;;;;;12.52;3.03;;;;;;;;;;4865085;29;20052;-84
2024/04/04 05:14:22;;;;;;;13.27;3.72;;;;;;;;;;4881856;29;20044;-87
2024/04/04 05:16:51;;;;;;;13.27;3.55;;;;;;;;;;4865316;29;20092;-84
2024/04/04 05:19:20;;;;;;;13.63;3.65;;;;;;;;;;4865046;29;20063;-83
2024/04/04 05:21:48;;;;;;;7.43;3.00;;;;;;;;;;4865921;29;20056;-83
2024/04/04 05:24:16;;;;;;;7.20;2.90;;;;;;;;;;4881449;29;20056;-84
2024/04/04 05:26:44;;;;;;;9.63;3.17;;;;;;;;;;4865601;29;20055;-86
2024/04/04 05:29:13;;;;;;;9.52;2.78;;;;;;;;;;4865462;29;20527;-83
2024/04/04 05:31:42;;;;;;;7.90;2.67;;;;;;;;;;4881351;29;20052;-86
2024/04/04 05:34:11;;;;;;;11.68;2.90;;;;;;;;;;4865678;29;20057;-85
2024/04/04 05:36:40;;;;;;;4.95;2.65;;;;;;;;;;4850151;29;20063;-84
2024/04/04 05:39:09;;;;;;;8.13;2.97;;;;;;;;;;4865072;29;20057;-84
2024/04/04 05:41:37;;;;;;;6.82;3.30;;;;;;;;;;4881131;29;20067;-86
2024/04/04 05:44:05;;;;;;;8.40;3.00;;;;;;;;;;4850488;29;20056;-83
2024/04/04 05:46:33;;;;;;;7.63;3.20;;;;;;;;;;4881105;29;20412;-85
2024/04/04 05:49:02;;;;;;;9.15;3.10;;;;;;;;;;4864735;29;20052;-84
2024/04/04 05:51:31;;;;;;;7.15;2.65;;;;;;;;;;4865494;29;20056;-86
2024/04/04 05:53:59;;;;;;;8.48;2.97;;;;;;;;;;4865087;29;20052;-86
2024/04/04 05:56:28;;;;;;;6.22;2.83;;;;;;;;;;4865242;29;20064;-86
2024/04/04 05:58:56;;;;;;;4.70;2.53;;;;;;;;;;4881171;29;20057;-88
2024/04/04 06:01:25;;;;;;;6.97;2.65;;;;;;;;;;4881308;29;20061;-85
2024/04/04 06:03:53;;;;;;;14.50;3.08;;;;;;;;;;4864997;29;20484;-84
2024/04/04 06:06:22;;;;;;;11.50;3.03;;;;;;;;;;4849221;29;20064;-83
2024/04/04 06:08:55;;;;;;;9.60;2.90;;;;;;;;;;4881250;29;20052;-84
2024/04/04 06:11:23;;;;;;;7.30;2.95;;;;;;;;;;4882944;29;20059;-87
2024/04/04 06:13:52;;;;;;;9.48;2.97;;;;;;;;;;4883140;29;20064;-84
2024/04/04 06:16:22;;;;;;;7.15;2.60;;;;;;;;;;4868357;29;20053;-84
2024/04/04 06:18:51;;;;;;;5.60;2.42;;;;;;;;;;4884379;29;20059;-83
2024/04/04 06:21:21;;;;;;;6.90;2.65;;;;;;;;;;4884578;29;20053;-87
2024/04/04 06:23:50;;;;;;;10.13;2.75;;;;;;;;;;4868204;29;20057;-84
2024/04/04 06:26:18;;;;;;;7.03;3.15;;;;;;;;;;4868465;29;20523;-84
2024/04/04 06:28:48;;;;;;;8.88;3.10;;;;;;;;;;4868414;29;20060;-87
2024/04/04 06:31:16;;;;;;;8.00;3.03;;;;;;;;;;4867877;29;20067;-88
2024/04/04 06:33:44;;;;;;;5.03;2.63;;;;;;;;;;4866171;29;20504;-85
2024/04/04 06:36:12;;;;;;;8.73;3.10;;;;;;;;;;4867536;29;20057;-84
2024/04/04 06:38:40;;;;;;;9.35;2.60;;;;;;;;;;4883792;29;20056;-86
2024/04/04 06:41:09;;;;;;;6.43;2.70;;;;;;;;;;4867595;29;20064;-86
2024/04/04 06:43:37;;;;;;;6.43;2.72;;;;;;;;;;4883590;29;20059;-87
2024/04/04 06:46:05;;;;;;;10.55;2.80;;;;;;;;;;4867127;29;20060;-87
2024/04/04 06:48:35;;;;;;;7.53;3.00;;;;;;;;;;4867519;29;20068;-86
2024/04/04 06:51:03;;;;;;;8.30;2.58;;;;;;;;;;4883565;29;20059;-85
2024/04/04 06:53:31;;;;;;;6.82;2.75;;;;;;;;;;4868481;29;20060;-86
2024/04/04 06:56:00;;;;;;;8.85;2.67;;;;;;;;;;4870803;29;20052;-83
2024/04/04 06:58:28;;;;;;;11.27;2.67;;;;;;;;;;4870312;29;20048;-86
2024/04/04 07:00:57;;;;;;;8.50;2.92;;;;;;;;;;4883952;29;20059;-84
2024/04/04 07:03:26;;;;;;;11.15;3.72;;;;;;;;;;4883497;29;20048;-84
2024/04/04 07:05:54;;;;;;;7.80;2.83;;;;;;;;;;4867948;29;20060;-84
2024/04/04 07:08:22;;;;;;;4.93;2.70;;;;;;;;;;4883539;29;20488;-86
2024/04/04 07:10:58;;;;;;;5.97;2.38;;;;;;;;;;4852222;29;20381;-85
2024/04/04 07:13:26;;;;;;;11.82;2.88;;;;;;;;;;4883617;29;20064;-84
2024/04/04 07:16:02;;;;;;;5.97;3.03;;;;;;;;;;4867456;29;20539;-84
2024/04/04 07:18:35;;;;;;;8.88;2.67;;;;;;;;;;4884135;29;20052;-87
2024/04/04 07:21:06;;;;;;;8.40;2.75;;;;;;;;;;4882679;29;20048;-86
2024/04/04 07:23:35;;;;;;;8.68;3.03;;;;;;;;;;4883090;29;20047;-84
2024/04/04 07:26:04;;;;;;;7.53;2.78;;;;;;;;;;4882717;29;20480;-86
2024/04/04 07:28:32;;;;;;;9.07;2.83;;;;;;;;;;4882995;29;20059;-84
2024/04/04 07:31:00;;;;;;;9.13;3.03;;;;;;;;;;4891019;29;20045;-85
2024/04/04 07:33:54;;;;;;;8.75;2.95;;;;;;;;;;4889433;29;20052;-88
2024/04/04 07:36:22;;;;;;;6.30;2.90;;;;;;;;;;4892812;29;20055;-84
2024/04/04 07:38:50;;;;;;;5.53;2.88;;;;;;;;;;4901599;29;20031;-86
2024/04/04 07:41:44;;;;;;;7.03;3.05;;;;;;;;;;4911273;29;20036;-85
2024/04/04 07:44:12;;;;;;;12.68;2.90;;;;;;;;;;4890682;29;20037;-84
2024/04/04 07:46:42;;;;;;;10.15;3.10;;;;;;;;;;4891020;29;20055;-83
2024/04/04 07:49:10;;;;;;;9.35;3.42;;;;;;;;;;4879977;29;20044;-84
2024/04/04 07:51:39;;;;;;;6.18;3.10;;;;;;;;;;4882829;29;20051;-83
2024/04/04 07:54:07;;;;;;;8.05;3.47;;;;;;;;;;4866698;29;20063;-83
2024/04/04 07:56:35;;;;;;;7.15;3.53;;;;;;;;;;4881968;29;20047;-85
2024/04/04 07:59:04;;;;;;;8.07;2.63;;;;;;;;;;4867498;29;20049;-83
2024/04/04 08:01:32;;;;;;;7.95;3.13;;;;;;;;;;4882059;29;20152;-85
2024/04/04 08:04:02;;;;;;;7.30;2.88;;;;;;;;;;4865856;29;20053;-84
2024/04/04 08:06:30;;;;;;;7.40;2.88;;;;;;;;;;4882145;29;20044;-83
2024/04/04 08:08:59;;;;;;;7.70;3.03;;;;;;;;;;4882232;29;20049;-83
2024/04/04 08:11:28;;;;;;;6.28;2.80;;;;;;;;;;4882221;29;20614;-83
2024/04/04 08:13:56;;;;;;;6.55;2.78;;;;;;;;;;4867231;29;20080;-85
2024/04/04 08:16:24;;;;;;;14.38;4.32;;;;;;;;;;4882593;29;20048;-83
2024/04/04 08:18:53;;;;;;;9.60;3.00;;;;;;;;;;4865977;29;20069;-84
2024/04/04 08:21:21;;;;;;;10.05;3.10;;;;;;;;;;4881995;29;20048;-86
2024/04/04 08:23:49;;;;;;;5.82;2.80;;;;;;;;;;4881915;29;20052;-83
2024/04/04 08:26:22;;;;;;;5.10;3.20;;;;;;;;;;4865900;29;20078;-83
2024/04/04 08:28:51;;;;;;;8.98;3.03;;;;;;;;;;4881551;29;20052;-84
2024/04/04 08:31:20;;;;;;;7.30;2.85;;;;;;;;;;4851144;29;20063;-83
2024/04/04 08:33:49;;;;;;;4.78;3.08;;;;;;;;;;4880768;29;20083;-84
2024/04/04 08:36:21;;;;;;;5.15;2.92;;;;;;;;;;4881541;29;20044;-83
2024/04/04 08:38:51;;;;;;;10.82;3.00;;;;;;;;;;4866692;29;20067;-83
2024/04/04 08:41:20;;;;;;;8.20;3.00;;;;;;;;;;4881580;29;20049;-83
2024/04/04 08:43:48;;;;;;;7.18;3.17;;;;;;;;;;4881730;29;20053;-84
2024/04/04 08:46:17;;;;;;;6.32;3.08;;;;;;;;;;4865580;29;20051;-83
2024/04/04 08:48:54;;;;;;;7.78;3.20;;;;;;;;;;4881740;29;20053;-83
2024/04/04 08:51:23;;;;;;;7.63;3.00;;;;;;;;;;4880453;29;20056;-83
2024/04/04 08:53:51;;;;;;;7.25;3.13;;;;;;;;;;4881945;29;20061;-84
2024/04/04 08:56:19;;;;;;;8.63;3.00;;;;;;;;;;4881697;29;20542;-83
2024/04/04 08:58:47;;;;;;;8.02;2.97;;;;;;;;;;4866277;29;20063;-85
2024/04/04 09:01:15;;;;;;;5.93;3.45;;;;;;;;;;4865653;29;20056;-84
2024/04/04 09:03:43;;;;;;;7.78;3.55;;;;;;;;;;4881376;29;20069;-83
2024/04/04 09:06:17;;;;;;;6.63;3.50;;;;;;;;;;4881499;29;20041;-82
2024/04/04 09:08:49;;;;;;;8.90;3.22;;;;;;;;;;4881963;29;20096;-84
2024/04/04 09:11:25;;;;;;;8.90;3.45;;;;;;;;;;4865570;29;20063;-86
2024/04/04 09:14:15;;;;;;;10.25;3.25;;;;;;;;;;4866474;29;20060;-84
2024/04/04 09:16:45;;;;;;;7.78;2.95;;;;;;;;;;4870030;29;20488;-83
2024/04/04 09:19:16;;;;;;;9.55;3.45;;;;;;;;;;4880843;29;20057;-82
2024/04/04 09:21:46;;;;;;;10.48;3.22;;;;;;;;;;4877515;29;20056;-83
2024/04/04 09:24:16;;;;;;;8.55;3.20;;;;;;;;;;4850116;29;20057;-83
2024/04/04 09:26:46;;;;;;;6.43;3.33;;;;;;;;;;4881885;29;20040;-82
2024/04/04 09:29:16;;;;;;;7.72;3.50;;;;;;;;;;4864289;29;20074;-84
2024/04/04 09:31:47;;;;;;;15.05;4.18;;;;;;;;;;4864517;29;20052;-82
2024/04/04 09:34:17;;;;;;;10.63;3.25;;;;;;;;;;4877317;29;20053;-82
2024/04/04 09:36:46;;;;;;;7.38;3.00;;;;;;;;;;4868718;29;20052;-85
2024/04/04 09:39:19;;;;;;;14.45;3.83;;;;;;;;;;4875746;29;20411;-85
2024/04/04 09:41:53;;;;;;;8.52;3.70;;;;;;;;;;4831872;29;20515;-83
2024/04/04 09:44:22;;;;;;;7.30;3.30;;;;;;;;;;4862416;29;20063;-82
2024/04/04 09:46:50;;;;;;;6.70;3.05;;;;;;;;;;4850439;29;20052;-82
2024/04/04 09:49:20;;;;;;;6.95;3.33;;;;;;;;;;4864866;29;20053;-82
2024/04/04 09:51:52;;;;;;;7.25;3.50;;;;;;;;;;4866179;29;20070;-83
2024/04/04 09:54:21;;;;;;;9.52;3.80;;;;;;;;;;4865948;29;20128;-82
2024/04/04 09:56:50;;;;;;;8.15;3.05;;;;;;;;;;4865223;29;20064;-85
2024/04/04 09:59:30;;;;;;;10.48;3.85;;;;;;;;;;4850237;29;20068;-82
2024/04/04 10:02:03;;;;;;;5.60;3.45;;;;;;;;;;4866449;29;20516;-84
2024/04/04 10:04:36;;;;;;;7.72;3.38;;;;;;;;;;4865600;29;20064;-82
2024/04/04 10:07:05;;;;;;;9.00;3.38;;;;;;;;;;4849952;29;20049;-83
2024/04/04 10:09:39;;;;;;;11.00;3.33;;;;;;;;;;4850881;29;20057;-83
2024/04/04 10:12:16;;;;;;;7.32;3.28;;;;;;;;;;4870820;29;20064;-85
2024/04/04 10:14:54;;;;;;;9.10;3.20;;;;;;;;;;4869449;29;20427;-84
2024/04/04 10:17:27;;;;;;;7.95;3.17;;;;;;;;;;4870956;29;20729;-83
2024/04/04 10:19:56;;;;;;;5.80;3.65;;;;;;;;;;4890679;29;20057;-84
2024/04/04 10:22:25;;;;;;;8.05;3.30;;;;;;;;;;4889582;29;20040;-82
2024/04/04 10:25:04;;;;;;;10.07;4.05;;;;;;;;;;4860924;29;20044;-83
2024/04/04 10:28:01;;;;;;;10.02;3.72;;;;;;;;;;4874411;29;20059;-84
2024/04/04 10:30:42;;;;;;;12.15;4.07;;;;;;;;;;4901285;29;20372;-84
2024/04/04 10:33:12;;;;;;;10.02;3.53;;;;;;;;;;4901727;29;20048;-83
2024/04/04 10:35:42;;;;;;;17.98;4.15;;;;;;;;;;4884700;29;20534;-82
2024/04/04 10:38:14;;;;;;;10.02;3.95;;;;;;;;;;4900349;29;20530;-83
2024/04/04 10:40:42;;;;;;;7.95;3.15;;;;;;;;;;4885262;29;20055;-84
2024/04/04 10:43:11;;;;;;;7.63;3.83;;;;;;;;;;4884399;29;20052;-86
2024/04/04 10:45:41;;;;;;;8.55;3.60;;;;;;;;;;4881568;29;20059;-83
2024/04/04 10:48:09;;;;;;;7.82;3.65;;;;;;;;;;4884333;29;20048;-85
2024/04/04 10:50:38;;;;;;;10.13;3.95;;;;;;;;;;4868005;29;20067;-85
2024/04/04 10:53:06;;;;;;;10.57;4.13;;;;;;;;;;4872086;29;20040;-84
2024/04/04 10:55:35;;;;;;;7.70;3.67;;;;;;;;;;4882277;29;20052;-83
2024/04/04 10:58:08;;;;;;;12.73;4.20;;;;;;;;;;4862401;29;20068;-85
2024/04/04 11:00:39;;;;;;;10.90;3.80;;;;;;;;;;4848877;29;20053;-83
2024/04/04 11:03:13;;;;;;;9.80;3.53;;;;;;;;;;4848768;29;20045;-84
2024/04/04 11:05:41;;;;;;;10.38;3.90;;;;;;;;;;4863682;29;20053;-83
2024/04/04 11:08:10;;;;;;;12.52;4.53;;;;;;;;;;4865350;29;20527;-83
2024/04/04 11:10:43;;;;;;;14.27;4.35;;;;;;;;;;4847635;29;20061;-86
2024/04/04 11:13:12;;;;;;;11.55;3.83;;;;;;;;;;4849773;29;20566;-83
2024/04/04 11:15:42;;;;;;;6.85;3.90;;;;;;;;;;4879951;29;20049;-83
2024/04/04 11:18:10;;;;;;;12.95;3.78;;;;;;;;;;4849618;29;20063;-85
2024/04/04 11:20:38;;;;;;;8.90;3.70;;;;;;;;;;4864722;29;20058;-83
2024/04/04 11:23:06;;;;;;;10.98;3.72;;;;;;;;;;4864360;29;20053;-84
2024/04/04 11:25:34;;;;;;;10.02;3.72;;;;;;;;;;4833902;29;20049;-83
2024/04/04 11:28:03;;;;;;;8.25;3.53;;;;;;;;;;4848136;29;20064;-83
2024/04/04 11:30:33;;;;;;;13.25;4.07;;;;;;;;;;4849101;29;20052;-83
2024/04/04 11:33:01;;;;;;;14.75;3.97;;;;;;;;;;4848047;29;20064;-82
2024/04/04 11:35:32;;;;;;;10.80;4.50;;;;;;;;;;4864228;29;20052;-82
2024/04/04 11:38:00;;;;;;;13.27;4.32;;;;;;;;;;4849509;29;20056;-82
2024/04/04 11:40:28;;;;;;;11.82;3.90;;;;;;;;;;4849062;29;20056;-82
2024/04/04 11:42:56;;;;;;;9.77;4.20;;;;;;;;;;4848644;29;20068;-82
2024/04/04 11:45:24;;;;;;;10.68;4.25;;;;;;;;;;4864856;29;20045;-82
2024/04/04 11:47:53;;;;;;;12.10;4.20;;;;;;;;;;4863734;29;20053;-83
2024/04/04 11:50:21;;;;;;;15.27;4.25;;;;;;;;;;4864608;29;20049;-84
2024/04/04 11:52:49;;;;;;;8.27;3.92;;;;;;;;;;4864008;29;20067;-82
2024/04/04 11:55:18;;;;;;;9.13;3.90;;;;;;;;;;4848223;29;20598;-83
2024/04/04 11:57:46;;;;;;;8.30;3.90;;;;;;;;;;4848158;29;20057;-85
2024/04/04 12:00:16;;;;;;;9.23;3.92;;;;;;;;;;4878031;29;20052;-84
2024/04/04 12:02:44;;;;;;;8.82;3.65;;;;;;;;;;4863018;29;20472;-84
2024/04/04 12:05:12;;;;;;;9.55;3.53;;;;;;;;;;4863598;29;20064;-85
2024/04/04 12:07:41;;;;;;;7.70;3.83;;;;;;;;;;4878667;29;20483;-82
2024/04/04 12:10:12;;;;;;;9.15;3.65;;;;;;;;;;4863279;29;20073;-84
2024/04/04 12:12:40;;;;;;;9.30;3.30;;;;;;;;;;4863641;29;20061;-82
2024/04/04 12:15:12;;;;;;;8.18;3.42;;;;;;;;;;4863709;29;20143;-83
2024/04/04 12:17:42;;;;;;;4.93;3.17;;;;;;;;;;4864020;29;20064;-83
2024/04/04 12:20:17;;;;;;;9.02;3.20;;;;;;;;;;4848359;29;20419;-86
2024/04/04 12:22:46;;;;;;;8.93;3.28;;;;;;;;;;4863051;29;20057;-83
2024/04/04 12:25:15;;;;;;;8.07;2.90;;;;;;;;;;4865242;29;20052;-83
2024/04/04 12:27:43;;;;;;;8.82;3.00;;;;;;;;;;4881799;29;20059;-83
2024/04/04 12:30:12;;;;;;;5.38;2.90;;;;;;;;;;4881176;29;20057;-82
2024/04/04 12:32:40;;;;;;;8.18;2.40;;;;;;;;;;4865690;29;20122;-83
2024/04/04 12:35:08;;;;;;;4.53;2.00;;;;;;;;;;4865779;29;20060;-83
2024/04/04 12:37:36;;;;;;;6.20;2.22;;;;;;;;;;4889364;29;20059;-84
2024/04/04 12:40:06;;;;;;;4.03;1.67;;;;;;;;;;4897556;29;20051;-83
2024/04/04 12:42:35;;;;;;;3.58;2.03;;;;;;;;;;4900196;29;20048;-83
2024/04/04 12:45:03;;;;;;;8.15;1.95;;;;;;;;;;4900202;29;20055;-84
2024/04/04 12:47:32;;;;;;;6.68;2.47;;;;;;;;;;4900011;29;20491;-83
2024/04/04 12:50:00;;;;;;;4.78;2.10;;;;;;;;;;4882235;29;20063;-83
2024/04/04 12:52:29;;;;;;;6.70;1.92;;;;;;;;;;4880646;29;20051;-86
2024/04/04 12:54:57;;;;;;;9.55;2.08;;;;;;;;;;4879469;29;20060;-85
2024/04/04 12:57:25;;;;;;;8.07;2.53;;;;;;;;;;4865499;29;20099;-84
2024/04/04 12:59:54;;;;;;;3.45;1.80;;;;;;;;;;4849396;29;20061;-86
2024/04/04 13:02:22;;;;;;;3.90;2.30;;;;;;;;;;4864973;29;20056;-85
2024/04/04 13:04:52;;;;;;;7.10;1.98;;;;;;;;;;4874924;29;20059;-85
2024/04/04 13:07:26;;;;;;;5.07;1.95;;;;;;;;;;4855193;29;20067;-86
2024/04/04 13:09:54;;;;;;;4.07;2.03;;;;;;;;;;4845354;29;20082;-86
2024/04/04 13:12:23;;;;;;;4.75;2.47;;;;;;;;;;4877132;29;20053;-84
2024/04/04 13:14:51;;;;;;;3.65;1.95;;;;;;;;;;4862105;29;20069;-88
2024/04/04 13:17:19;;;;;;;7.53;2.15;;;;;;;;;;4877677;29;20049;-84
2024/04/04 13:19:48;;;;;;;3.95;1.92;;;;;;;;;;4871138;29;20550;-86
2024/04/04 13:22:16;;;;;;;7.38;1.95;;;;;;;;;;4873569;29;20053;-83
2024/04/04 13:24:45;;;;;;;3.63;2.05;;;;;;;;;;4872608;29;20048;-82
2024/04/04 13:27:13;;;;;;;10.50;1.85;;;;;;;;;;4901748;29;20048;-84
2024/04/04 13:29:41;;;;;;;5.53;2.20;;;;;;;;;;4886919;29;20530;-83
2024/04/04 13:32:09;;;;;;;3.75;2.10;;;;;;;;;;4880602;29;20056;-84
2024/04/04 13:34:38;;;;;;;9.10;2.03;;;;;;;;;;4869157;29;20063;-83
2024/04/04 13:37:06;;;;;;;3.63;2.22;;;;;;;;;;4884536;29;20049;-83
2024/04/04 13:39:34;;;;;;;4.50;2.25;;;;;;;;;;4884501;29;20052;-82
2024/04/04 13:42:04;;;;;;;4.57;2.28;;;;;;;;;;4869416;29;20048;-83
2024/04/04 13:44:35;;;;;;;6.85;2.00;;;;;;;;;;4897650;29;20056;-83
2024/04/04 13:47:04;;;;;;;4.60;2.05;;;;;;;;;;4887665;29;20048;-83
2024/04/04 13:49:32;;;;;;;3.55;1.90;;;;;;;;;;4880532;29;20051;-83
2024/04/04 13:52:01;;;;;;;7.95;1.80;;;;;;;;;;4880496;29;20051;-83
2024/04/04 13:54:29;;;;;;;3.72;1.90;;;;;;;;;;4866332;29;20053;-84
2024/04/04 13:56:57;;;;;;;4.20;1.80;;;;;;;;;;4884999;29;20115;-82
2024/04/04 13:59:26;;;;;;;4.80;2.22;;;;;;;;;;4879842;29;20056;-83
2024/04/04 14:01:54;;;;;;;8.23;2.20;;;;;;;;;;4860916;29;20140;-82
2024/04/04 14:04:22;;;;;;;4.63;1.80;;;;;;;;;;4882811;29;20071;-81
2024/04/04 14:06:50;;;;;;;4.55;1.40;;;;;;;;;;4883377;29;20053;-84
2024/04/04 14:09:18;;;;;;;3.80;1.50;;;;;;;;;;4883386;29;20048;-86
2024/04/04 14:11:46;;;;;;;8.35;1.65;;;;;;;;;;4883447;29;20064;-80
2024/04/04 14:14:16;;;;;;;3.20;1.20;;;;;;;;;;4882936;29;20053;-81
2024/04/04 14:16:44;;;;;;;6.25;1.30;;;;;;;;;;4879897;29;20055;-84
2024/04/04 14:19:12;;;;;;;3.30;1.08;;;;;;;;;;4902052;29;20052;-83
2024/04/04 14:21:40;;;;;;;4.40;1.02;;;;;;;;;;4892000;29;20059;-87
2024/04/04 14:24:08;;;;;;;2.30;1.50;;;;;;;;;;4873457;29;20427;-85
2024/04/04 14:26:38;;;;;;;5.65;1.20;;;;;;;;;;4886276;29;20048;-86
2024/04/04 14:29:07;;;;;;;4.45;1.10;;;;;;;;;;4901792;29;20052;-84
2024/04/04 14:31:36;;;;;;;3.60;1.20;;;;;;;;;;4884839;29;20057;-84
2024/04/04 14:34:04;;;;;;;2.50;1.00;;;;;;;;;;4880776;29;20535;-86
2024/04/04 14:36:32;;;;;;;5.15;1.75;;;;;;;;;;4864060;29;20412;-86
2024/04/04 14:39:03;;;;;;;3.22;1.13;;;;;;;;;;4864222;29;20056;-84
2024/04/04 14:41:31;;;;;;;3.63;1.13;;;;;;;;;;4864022;29;20069;-83
2024/04/04 14:43:59;;;;;;;5.53;1.33;;;;;;;;;;4848992;29;20045;-84
2024/04/04 14:46:28;;;;;;;1.60;0.80;;;;;;;;;;4864126;29;20048;-84
2024/04/04 14:48:58;;;;;;;3.03;1.20;;;;;;;;;;4884742;29;20051;-83
2024/04/04 14:51:26;;;;;;;2.55;1.08;;;;;;;;;;4882710;29;20075;-83